sensor_id;sensor_type;location;lat;lon;timestamp;P1;durP1;ratioP1;P2;durP2;ratioP2
78818;SDS011;68166;55.090;37.460;2023-04-28T00:03:53;31.95;;;13.90;;
78818;SDS011;68166;55.090;37.460;2023-04-28T00:08:56;21.60;;;10.90;;
78818;SDS011;68166;55.090;37.460;2023-04-28T00:13:58;27.80;;;8.90;;
78818;SDS011;68166;55.090;37.460;2023-04-28T00:19:00;20.33;;;10.15;;
78818;SDS011;68166;55.090;37.460;2023-04-28T00:24:02;21.63;;;9.63;;
78818;SDS011;68166;55.090;37.460;2023-04-28T00:29:04;16.35;;;8.63;;
78818;SDS011;68166;55.090;37.460;2023-04-28T00:34:06;16.33;;;7.13;;
78818;SDS011;68166;55.090;37.460;2023-04-28T00:39:08;12.45;;;5.15;;
78818;SDS011;68166;55.090;37.460;2023-04-28T00:44:10;8.18;;;4.40;;
78818;SDS011;68166;55.090;37.460;2023-04-28T00:49:12;7.38;;;4.32;;
78818;SDS011;68166;55.090;37.460;2023-04-28T00:54:16;9.38;;;4.60;;
78818;SDS011;68166;55.090;37.460;2023-04-28T00:59:21;12.68;;;4.15;;
78818;SDS011;68166;55.090;37.460;2023-04-28T01:04:23;9.00;;;4.53;;
78818;SDS011;68166;55.090;37.460;2023-04-28T01:09:29;13.15;;;6.18;;
78818;SDS011;68166;55.090;37.460;2023-04-28T01:14:33;9.80;;;6.43;;
78818;SDS011;68166;55.090;37.460;2023-04-28T01:19:35;7.55;;;5.22;;
78818;SDS011;68166;55.090;37.460;2023-04-28T01:24:37;10.55;;;4.32;;
78818;SDS011;68166;55.090;37.460;2023-04-28T01:29:39;6.22;;;4.00;;
78818;SDS011;68166;55.090;37.460;2023-04-28T01:34:41;7.03;;;4.05;;
78818;SDS011;68166;55.090;37.460;2023-04-28T01:39:43;6.38;;;2.40;;
78818;SDS011;68166;55.090;37.460;2023-04-28T01:44:45;4.43;;;2.75;;
78818;SDS011;68166;55.090;37.460;2023-04-28T01:49:47;11.05;;;2.72;;
78818;SDS011;68166;55.090;37.460;2023-04-28T01:54:50;4.63;;;3.10;;
78818;SDS011;68166;55.090;37.460;2023-04-28T01:59:52;4.32;;;2.53;;
78818;SDS011;68166;55.090;37.460;2023-04-28T02:04:54;3.13;;;2.05;;
78818;SDS011;68166;55.090;37.460;2023-04-28T02:09:57;4.78;;;2.88;;
78818;SDS011;68166;55.090;37.460;2023-04-28T02:14:59;5.55;;;2.97;;
78818;SDS011;68166;55.090;37.460;2023-04-28T02:20:01;4.80;;;1.77;;
78818;SDS011;68166;55.090;37.460;2023-04-28T02:25:05;5.30;;;2.53;;
78818;SDS011;68166;55.090;37.460;2023-04-28T02:30:07;6.85;;;2.22;;
78818;SDS011;68166;55.090;37.460;2023-04-28T02:35:10;3.78;;;2.47;;
78818;SDS011;68166;55.090;37.460;2023-04-28T02:40:13;3.70;;;2.17;;
78818;SDS011;68166;55.090;37.460;2023-04-28T02:45:15;5.32;;;2.50;;
78818;SDS011;68166;55.090;37.460;2023-04-28T02:50:17;7.35;;;2.30;;
78818;SDS011;68166;55.090;37.460;2023-04-28T02:55:19;7.80;;;2.58;;
78818;SDS011;68166;55.090;37.460;2023-04-28T03:00:24;5.65;;;2.45;;
78818;SDS011;68166;55.090;37.460;2023-04-28T03:05:26;4.30;;;2.45;;
78818;SDS011;68166;55.090;37.460;2023-04-28T03:10:28;5.85;;;1.92;;
78818;SDS011;68166;55.090;37.460;2023-04-28T03:15:30;5.35;;;2.60;;
78818;SDS011;68166;55.090;37.460;2023-04-28T03:20:32;7.43;;;2.58;;
78818;SDS011;68166;55.090;37.460;2023-04-28T03:25:34;7.80;;;2.80;;
78818;SDS011;68166;55.090;37.460;2023-04-28T03:30:40;6.85;;;2.72;;
78818;SDS011;68166;55.090;37.460;2023-04-28T03:35:42;7.28;;;2.85;;
78818;SDS011;68166;55.090;37.460;2023-04-28T03:40:44;7.20;;;3.35;;
78818;SDS011;68166;55.090;37.460;2023-04-28T03:45:46;5.43;;;2.55;;
78818;SDS011;68166;55.090;37.460;2023-04-28T03:50:49;5.32;;;2.90;;
78818;SDS011;68166;55.090;37.460;2023-04-28T03:55:51;5.63;;;2.85;;
78818;SDS011;68166;55.090;37.460;2023-04-28T04:00:53;9.32;;;3.90;;
78818;SDS011;68166;55.090;37.460;2023-04-28T04:05:55;5.38;;;2.60;;
78818;SDS011;68166;55.090;37.460;2023-04-28T04:10:57;5.38;;;2.30;;
78818;SDS011;68166;55.090;37.460;2023-04-28T04:15:59;7.43;;;3.30;;
78818;SDS011;68166;55.090;37.460;2023-04-28T04:21:01;6.70;;;2.67;;
78818;SDS011;68166;55.090;37.460;2023-04-28T04:26:03;5.25;;;3.30;;
78818;SDS011;68166;55.090;37.460;2023-04-28T04:31:08;6.45;;;2.72;;
78818;SDS011;68166;55.090;37.460;2023-04-28T04:36:10;7.05;;;3.45;;
78818;SDS011;68166;55.090;37.460;2023-04-28T04:41:12;5.38;;;3.33;;
78818;SDS011;68166;55.090;37.460;2023-04-28T04:46:14;6.38;;;2.80;;
78818;SDS011;68166;55.090;37.460;2023-04-28T04:51:16;4.05;;;2.40;;
78818;SDS011;68166;55.090;37.460;2023-04-28T04:56:18;6.40;;;3.25;;
78818;SDS011;68166;55.090;37.460;2023-04-28T05:01:20;6.32;;;3.17;;
78818;SDS011;68166;55.090;37.460;2023-04-28T05:06:22;4.70;;;2.28;;
78818;SDS011;68166;55.090;37.460;2023-04-28T05:11:24;5.55;;;2.63;;
78818;SDS011;68166;55.090;37.460;2023-04-28T05:16:26;5.50;;;3.53;;
78818;SDS011;68166;55.090;37.460;2023-04-28T05:21:28;5.88;;;2.72;;
78818;SDS011;68166;55.090;37.460;2023-04-28T05:26:31;5.00;;;2.90;;
78818;SDS011;68166;55.090;37.460;2023-04-28T05:31:32;5.13;;;2.95;;
78818;SDS011;68166;55.090;37.460;2023-04-28T05:36:34;6.75;;;3.30;;
78818;SDS011;68166;55.090;37.460;2023-04-28T05:41:37;5.90;;;2.72;;
78818;SDS011;68166;55.090;37.460;2023-04-28T05:46:38;5.50;;;2.60;;
78818;SDS011;68166;55.090;37.460;2023-04-28T05:51:40;5.63;;;2.60;;
78818;SDS011;68166;55.090;37.460;2023-04-28T05:56:42;5.65;;;2.60;;
78818;SDS011;68166;55.090;37.460;2023-04-28T06:01:44;4.18;;;2.70;;
78818;SDS011;68166;55.090;37.460;2023-04-28T06:06:46;5.10;;;2.20;;
78818;SDS011;68166;55.090;37.460;2023-04-28T06:11:49;4.93;;;2.38;;
78818;SDS011;68166;55.090;37.460;2023-04-28T06:16:53;5.80;;;2.30;;
78818;SDS011;68166;55.090;37.460;2023-04-28T06:21:55;5.25;;;2.42;;
78818;SDS011;68166;55.090;37.460;2023-04-28T06:26:57;3.90;;;2.22;;
78818;SDS011;68166;55.090;37.460;2023-04-28T06:31:59;3.70;;;2.38;;
78818;SDS011;68166;55.090;37.460;2023-04-28T06:37:01;4.38;;;2.08;;
78818;SDS011;68166;55.090;37.460;2023-04-28T06:42:03;4.68;;;2.10;;
78818;SDS011;68166;55.090;37.460;2023-04-28T06:47:06;4.75;;;2.40;;
78818;SDS011;68166;55.090;37.460;2023-04-28T06:52:08;8.60;;;2.72;;
78818;SDS011;68166;55.090;37.460;2023-04-28T06:57:10;5.03;;;2.90;;
78818;SDS011;68166;55.090;37.460;2023-04-28T07:02:12;4.25;;;1.85;;
78818;SDS011;68166;55.090;37.460;2023-04-28T07:07:17;4.13;;;2.10;;
78818;SDS011;68166;55.090;37.460;2023-04-28T07:12:19;3.78;;;2.40;;
78818;SDS011;68166;55.090;37.460;2023-04-28T07:17:21;5.93;;;2.10;;
78818;SDS011;68166;55.090;37.460;2023-04-28T07:22:23;4.13;;;2.25;;
78818;SDS011;68166;55.090;37.460;2023-04-28T07:27:25;3.42;;;2.15;;
78818;SDS011;68166;55.090;37.460;2023-04-28T07:32:27;4.05;;;2.50;;
78818;SDS011;68166;55.090;37.460;2023-04-28T07:37:29;4.00;;;2.55;;
78818;SDS011;68166;55.090;37.460;2023-04-28T07:42:31;6.78;;;2.50;;
78818;SDS011;68166;55.090;37.460;2023-04-28T07:47:33;3.75;;;2.63;;
78818;SDS011;68166;55.090;37.460;2023-04-28T07:52:36;4.78;;;2.70;;
78818;SDS011;68166;55.090;37.460;2023-04-28T07:57:38;5.43;;;2.72;;
78818;SDS011;68166;55.090;37.460;2023-04-28T08:02:41;6.00;;;2.90;;
78818;SDS011;68166;55.090;37.460;2023-04-28T08:07:42;6.45;;;2.47;;
78818;SDS011;68166;55.090;37.460;2023-04-28T08:12:45;4.80;;;2.85;;
78818;SDS011;68166;55.090;37.460;2023-04-28T08:17:47;4.45;;;2.75;;
78818;SDS011;68166;55.090;37.460;2023-04-28T08:22:49;5.65;;;3.28;;
78818;SDS011;68166;55.090;37.460;2023-04-28T08:27:51;4.75;;;3.63;;
78818;SDS011;68166;55.090;37.460;2023-04-28T08:32:55;4.03;;;2.60;;
78818;SDS011;68166;55.090;37.460;2023-04-28T08:37:57;5.47;;;2.97;;
78818;SDS011;68166;55.090;37.460;2023-04-28T08:42:59;6.18;;;3.03;;
78818;SDS011;68166;55.090;37.460;2023-04-28T08:48:01;5.03;;;3.30;;
78818;SDS011;68166;55.090;37.460;2023-04-28T08:53:05;6.70;;;3.42;;
78818;SDS011;68166;55.090;37.460;2023-04-28T08:58:07;5.60;;;2.75;;
78818;SDS011;68166;55.090;37.460;2023-04-28T09:03:09;6.32;;;3.40;;
78818;SDS011;68166;55.090;37.460;2023-04-28T09:08:12;6.57;;;3.10;;
78818;SDS011;68166;55.090;37.460;2023-04-28T09:13:24;5.03;;;2.85;;
78818;SDS011;68166;55.090;37.460;2023-04-28T09:18:26;4.88;;;2.60;;
78818;SDS011;68166;55.090;37.460;2023-04-28T09:23:29;6.03;;;3.08;;
78818;SDS011;68166;55.090;37.460;2023-04-28T09:28:31;5.28;;;3.00;;
78818;SDS011;68166;55.090;37.460;2023-04-28T09:33:34;3.53;;;2.20;;
78818;SDS011;68166;55.090;37.460;2023-04-28T09:38:42;5.78;;;2.65;;
78818;SDS011;68166;55.090;37.460;2023-04-28T09:43:45;4.70;;;2.92;;
78818;SDS011;68166;55.090;37.460;2023-04-28T09:48:47;5.25;;;3.10;;
78818;SDS011;68166;55.090;37.460;2023-04-28T09:53:48;4.93;;;2.33;;
78818;SDS011;68166;55.090;37.460;2023-04-28T09:58:52;4.28;;;2.45;;
78818;SDS011;68166;55.090;37.460;2023-04-28T10:03:54;5.32;;;2.88;;
78818;SDS011;68166;55.090;37.460;2023-04-28T10:08:57;4.78;;;2.33;;
78818;SDS011;68166;55.090;37.460;2023-04-28T10:14:00;7.15;;;2.20;;
78818;SDS011;68166;55.090;37.460;2023-04-28T10:19:02;6.00;;;2.67;;
78818;SDS011;68166;55.090;37.460;2023-04-28T10:29:15;2.95;;;2.00;;
78818;SDS011;68166;55.090;37.460;2023-04-28T10:34:20;3.90;;;2.13;;
78818;SDS011;68166;55.090;37.460;2023-04-28T10:39:22;4.47;;;2.28;;
78818;SDS011;68166;55.090;37.460;2023-04-28T11:00:27;4.38;;;2.75;;
78818;SDS011;68166;55.090;37.460;2023-04-28T11:05:30;6.28;;;3.50;;
78818;SDS011;68166;55.090;37.460;2023-04-28T11:16:21;5.60;;;2.92;;
78818;SDS011;68166;55.090;37.460;2023-04-28T11:21:25;4.18;;;2.67;;
78818;SDS011;68166;55.090;37.460;2023-04-28T11:26:28;3.45;;;2.15;;
78818;SDS011;68166;55.090;37.460;2023-04-28T11:31:30;3.95;;;2.47;;
78818;SDS011;68166;55.090;37.460;2023-04-28T11:36:33;4.40;;;2.53;;
78818;SDS011;68166;55.090;37.460;2023-04-28T11:41:37;5.00;;;2.50;;
78818;SDS011;68166;55.090;37.460;2023-04-28T11:52:12;3.88;;;2.03;;
78818;SDS011;68166;55.090;37.460;2023-04-28T11:57:18;3.22;;;1.75;;
78818;SDS011;68166;55.090;37.460;2023-04-28T12:02:27;4.65;;;2.17;;
78818;SDS011;68166;55.090;37.460;2023-04-28T12:07:29;5.05;;;2.35;;
78818;SDS011;68166;55.090;37.460;2023-04-28T12:12:44;7.90;;;3.28;;
78818;SDS011;68166;55.090;37.460;2023-04-28T12:17:47;5.13;;;2.88;;
78818;SDS011;68166;55.090;37.460;2023-04-28T12:22:50;5.45;;;2.83;;
78818;SDS011;68166;55.090;37.460;2023-04-28T12:28:05;5.32;;;2.70;;
78818;SDS011;68166;55.090;37.460;2023-04-28T12:33:23;4.40;;;2.78;;
78818;SDS011;68166;55.090;37.460;2023-04-28T12:38:33;3.88;;;2.58;;
78818;SDS011;68166;55.090;37.460;2023-04-28T12:43:35;4.93;;;2.55;;
78818;SDS011;68166;55.090;37.460;2023-04-28T12:48:37;5.47;;;2.65;;
78818;SDS011;68166;55.090;37.460;2023-04-28T12:53:39;3.78;;;2.13;;
78818;SDS011;68166;55.090;37.460;2023-04-28T12:58:41;4.57;;;2.53;;
78818;SDS011;68166;55.090;37.460;2023-04-28T13:03:43;4.32;;;2.22;;
78818;SDS011;68166;55.090;37.460;2023-04-28T13:08:47;5.45;;;2.55;;
78818;SDS011;68166;55.090;37.460;2023-04-28T13:13:49;5.45;;;2.47;;
78818;SDS011;68166;55.090;37.460;2023-04-28T13:18:52;4.63;;;2.70;;
78818;SDS011;68166;55.090;37.460;2023-04-28T13:23:55;4.95;;;2.17;;
78818;SDS011;68166;55.090;37.460;2023-04-28T13:28:57;4.90;;;2.53;;
78818;SDS011;68166;55.090;37.460;2023-04-28T13:34:00;5.22;;;2.30;;
78818;SDS011;68166;55.090;37.460;2023-04-28T13:39:02;4.60;;;2.03;;
78818;SDS011;68166;55.090;37.460;2023-04-28T13:44:04;4.75;;;2.28;;
78818;SDS011;68166;55.090;37.460;2023-04-28T13:49:06;4.20;;;2.05;;
78818;SDS011;68166;55.090;37.460;2023-04-28T13:54:11;4.05;;;1.70;;
78818;SDS011;68166;55.090;37.460;2023-04-28T13:59:13;3.85;;;1.58;;
78818;SDS011;68166;55.090;37.460;2023-04-28T14:04:15;4.32;;;1.70;;
78818;SDS011;68166;55.090;37.460;2023-04-28T14:09:17;13.27;;;10.63;;
78818;SDS011;68166;55.090;37.460;2023-04-28T14:14:19;1.65;;;0.95;;
78818;SDS011;68166;55.090;37.460;2023-04-28T14:19:21;3.42;;;1.10;;
78818;SDS011;68166;55.090;37.460;2023-04-28T14:24:24;3.35;;;1.58;;
78818;SDS011;68166;55.090;37.460;2023-04-28T14:29:26;2.08;;;1.10;;
78818;SDS011;68166;55.090;37.460;2023-04-28T14:34:28;1.83;;;0.70;;
78818;SDS011;68166;55.090;37.460;2023-04-28T14:39:30;2.08;;;0.80;;
78818;SDS011;68166;55.090;37.460;2023-04-28T14:44:33;4.80;;;1.45;;
78818;SDS011;68166;55.090;37.460;2023-04-28T14:49:35;2.78;;;1.23;;
78818;SDS011;68166;55.090;37.460;2023-04-28T14:54:37;1.65;;;0.40;;
78818;SDS011;68166;55.090;37.460;2023-04-28T14:59:39;3.47;;;0.77;;
78818;SDS011;68166;55.090;37.460;2023-04-28T15:04:41;1.33;;;0.50;;
78818;SDS011;68166;55.090;37.460;2023-04-28T15:09:44;1.88;;;0.60;;
78818;SDS011;68166;55.090;37.460;2023-04-28T15:14:46;1.77;;;0.77;;
78818;SDS011;68166;55.090;37.460;2023-04-28T15:19:48;1.08;;;0.38;;
78818;SDS011;68166;55.090;37.460;2023-04-28T15:24:50;2.33;;;0.73;;
78818;SDS011;68166;55.090;37.460;2023-04-28T15:29:54;1.20;;;0.45;;
78818;SDS011;68166;55.090;37.460;2023-04-28T15:34:56;3.17;;;0.80;;
78818;SDS011;68166;55.090;37.460;2023-04-28T15:39:58;1.05;;;0.40;;
78818;SDS011;68166;55.090;37.460;2023-04-28T15:45:00;2.15;;;0.77;;
78818;SDS011;68166;55.090;37.460;2023-04-28T15:50:02;2.10;;;0.50;;
78818;SDS011;68166;55.090;37.460;2023-04-28T15:55:05;1.05;;;0.57;;
78818;SDS011;68166;55.090;37.460;2023-04-28T16:00:08;1.50;;;0.57;;
78818;SDS011;68166;55.090;37.460;2023-04-28T16:05:11;1.00;;;0.32;;
78818;SDS011;68166;55.090;37.460;2023-04-28T16:10:13;1.25;;;0.40;;
78818;SDS011;68166;55.090;37.460;2023-04-28T16:15:16;1.08;;;0.65;;
78818;SDS011;68166;55.090;37.460;2023-04-28T16:20:19;0.70;;;0.30;;
78818;SDS011;68166;55.090;37.460;2023-04-28T16:25:21;2.58;;;0.88;;
78818;SDS011;68166;55.090;37.460;2023-04-28T16:30:23;4.03;;;0.68;;
78818;SDS011;68166;55.090;37.460;2023-04-28T16:35:26;0.73;;;0.20;;
78818;SDS011;68166;55.090;37.460;2023-04-28T16:40:28;2.05;;;0.80;;
78818;SDS011;68166;55.090;37.460;2023-04-28T16:45:30;0.93;;;0.40;;
78818;SDS011;68166;55.090;37.460;2023-04-28T16:50:32;4.93;;;0.65;;
78818;SDS011;68166;55.090;37.460;2023-04-28T16:55:34;1.55;;;0.60;;
78818;SDS011;68166;55.090;37.460;2023-04-28T17:00:39;2.70;;;0.60;;
78818;SDS011;68166;55.090;37.460;2023-04-28T17:05:41;1.48;;;0.60;;
78818;SDS011;68166;55.090;37.460;2023-04-28T17:10:43;0.45;;;0.10;;
78818;SDS011;68166;55.090;37.460;2023-04-28T17:15:52;1.20;;;0.30;;
78818;SDS011;68166;55.090;37.460;2023-04-28T17:21:00;0.68;;;0.30;;
78818;SDS011;68166;55.090;37.460;2023-04-28T17:26:02;1.33;;;0.60;;
78818;SDS011;68166;55.090;37.460;2023-04-28T17:31:05;0.68;;;0.22;;
78818;SDS011;68166;55.090;37.460;2023-04-28T17:36:07;0.70;;;0.30;;
78818;SDS011;68166;55.090;37.460;2023-04-28T17:41:09;0.30;;;0.13;;
78818;SDS011;68166;55.090;37.460;2023-04-28T17:46:11;8.25;;;2.90;;
78818;SDS011;68166;55.090;37.460;2023-04-28T17:51:14;0.88;;;0.43;;
78818;SDS011;68166;55.090;37.460;2023-04-28T17:56:16;1.00;;;0.35;;
78818;SDS011;68166;55.090;37.460;2023-04-28T18:01:18;2.70;;;0.80;;
78818;SDS011;68166;55.090;37.460;2023-04-28T18:06:20;1.05;;;0.45;;
78818;SDS011;68166;55.090;37.460;2023-04-28T18:11:22;0.88;;;0.20;;
78818;SDS011;68166;55.090;37.460;2023-04-28T18:16:26;0.55;;;0.32;;
78818;SDS011;68166;55.090;37.460;2023-04-28T18:21:28;0.80;;;0.40;;
78818;SDS011;68166;55.090;37.460;2023-04-28T18:26:30;1.05;;;0.28;;
78818;SDS011;68166;55.090;37.460;2023-04-28T18:31:32;1.10;;;0.40;;
78818;SDS011;68166;55.090;37.460;2023-04-28T18:36:35;1.13;;;0.30;;
78818;SDS011;68166;55.090;37.460;2023-04-28T18:41:37;0.68;;;0.20;;
78818;SDS011;68166;55.090;37.460;2023-04-28T18:46:40;0.45;;;0.20;;
78818;SDS011;68166;55.090;37.460;2023-04-28T18:51:41;1.05;;;0.20;;
78818;SDS011;68166;55.090;37.460;2023-04-28T18:56:43;1.08;;;0.43;;
78818;SDS011;68166;55.090;37.460;2023-04-28T19:01:46;0.45;;;0.20;;
78818;SDS011;68166;55.090;37.460;2023-04-28T19:06:48;0.65;;;0.30;;
78818;SDS011;68166;55.090;37.460;2023-04-28T19:11:50;1.45;;;0.55;;
78818;SDS011;68166;55.090;37.460;2023-04-28T19:16:53;0.10;;;0.10;;
78818;SDS011;68166;55.090;37.460;2023-04-28T19:21:55;0.82;;;0.40;;
78818;SDS011;68166;55.090;37.460;2023-04-28T19:26:57;1.60;;;0.50;;
78818;SDS011;68166;55.090;37.460;2023-04-28T19:32:01;2.13;;;0.90;;
78818;SDS011;68166;55.090;37.460;2023-04-28T19:37:03;0.25;;;0.10;;
78818;SDS011;68166;55.090;37.460;2023-04-28T19:42:09;1.02;;;0.17;;
78818;SDS011;68166;55.090;37.460;2023-04-28T19:47:11;1.00;;;0.50;;
78818;SDS011;68166;55.090;37.460;2023-04-28T19:52:13;0.57;;;0.25;;
78818;SDS011;68166;55.090;37.460;2023-04-28T19:57:15;0.52;;;0.10;;
78818;SDS011;68166;55.090;37.460;2023-04-28T20:02:18;0.95;;;0.22;;
78818;SDS011;68166;55.090;37.460;2023-04-28T20:07:23;0.32;;;0.20;;
78818;SDS011;68166;55.090;37.460;2023-04-28T20:12:25;0.32;;;0.20;;
78818;SDS011;68166;55.090;37.460;2023-04-28T20:17:27;0.93;;;0.40;;
78818;SDS011;68166;55.090;37.460;2023-04-28T20:22:29;0.55;;;0.28;;
78818;SDS011;68166;55.090;37.460;2023-04-28T20:27:32;0.43;;;0.20;;
78818;SDS011;68166;55.090;37.460;2023-04-28T20:32:34;0.77;;;0.35;;
78818;SDS011;68166;55.090;37.460;2023-04-28T20:37:36;0.90;;;0.43;;
78818;SDS011;68166;55.090;37.460;2023-04-28T20:42:39;0.65;;;0.50;;
78818;SDS011;68166;55.090;37.460;2023-04-28T20:47:41;0.17;;;0.05;;
78818;SDS011;68166;55.090;37.460;2023-04-28T20:52:43;0.80;;;0.38;;
78818;SDS011;68166;55.090;37.460;2023-04-28T20:57:45;0.77;;;0.50;;
78818;SDS011;68166;55.090;37.460;2023-04-28T21:02:47;0.77;;;0.43;;
78818;SDS011;68166;55.090;37.460;2023-04-28T21:07:49;0.63;;;0.40;;
78818;SDS011;68166;55.090;37.460;2023-04-28T21:12:51;1.67;;;0.75;;
78818;SDS011;68166;55.090;37.460;2023-04-28T21:17:53;1.02;;;0.45;;
78818;SDS011;68166;55.090;37.460;2023-04-28T21:22:55;1.42;;;0.47;;
78818;SDS011;68166;55.090;37.460;2023-04-28T21:27:57;1.45;;;0.75;;
78818;SDS011;68166;55.090;37.460;2023-04-28T21:32:59;1.27;;;0.82;;
78818;SDS011;68166;55.090;37.460;2023-04-28T21:38:04;0.85;;;0.38;;
78818;SDS011;68166;55.090;37.460;2023-04-28T21:43:06;1.67;;;0.60;;
78818;SDS011;68166;55.090;37.460;2023-04-28T21:48:08;3.50;;;1.30;;
78818;SDS011;68166;55.090;37.460;2023-04-28T21:53:10;1.58;;;0.85;;
78818;SDS011;68166;55.090;37.460;2023-04-28T21:58:12;6.95;;;0.85;;
78818;SDS011;68166;55.090;37.460;2023-04-28T22:03:16;1.00;;;0.38;;
78818;SDS011;68166;55.090;37.460;2023-04-28T22:08:18;0.63;;;0.28;;
78818;SDS011;68166;55.090;37.460;2023-04-28T22:13:20;3.70;;;0.68;;
78818;SDS011;68166;55.090;37.460;2023-04-28T22:18:23;2.72;;;1.17;;
78818;SDS011;68166;55.090;37.460;2023-04-28T22:23:25;1.55;;;0.65;;
78818;SDS011;68166;55.090;37.460;2023-04-28T22:28:27;0.10;;;0.08;;
78818;SDS011;68166;55.090;37.460;2023-04-28T22:33:29;1.17;;;0.15;;
78818;SDS011;68166;55.090;37.460;2023-04-28T22:38:31;1.10;;;0.40;;
78818;SDS011;68166;55.090;37.460;2023-04-28T22:43:33;0.47;;;0.28;;
78818;SDS011;68166;55.090;37.460;2023-04-28T22:48:35;0.32;;;0.13;;
78818;SDS011;68166;55.090;37.460;2023-04-28T22:53:37;0.70;;;0.15;;
78818;SDS011;68166;55.090;37.460;2023-04-28T22:58:39;1.48;;;0.70;;
78818;SDS011;68166;55.090;37.460;2023-04-28T23:03:41;1.42;;;0.60;;
78818;SDS011;68166;55.090;37.460;2023-04-28T23:08:43;2.53;;;1.08;;
78818;SDS011;68166;55.090;37.460;2023-04-28T23:13:45;1.90;;;0.90;;
78818;SDS011;68166;55.090;37.460;2023-04-28T23:18:46;1.17;;;0.52;;
78818;SDS011;68166;55.090;37.460;2023-04-28T23:23:48;0.75;;;0.32;;
78818;SDS011;68166;55.090;37.460;2023-04-28T23:28:51;1.20;;;0.50;;
78818;SDS011;68166;55.090;37.460;2023-04-28T23:33:53;2.72;;;0.70;;
78818;SDS011;68166;55.090;37.460;2023-04-28T23:38:55;0.82;;;0.28;;
78818;SDS011;68166;55.090;37.460;2023-04-28T23:43:57;0.75;;;0.35;;
78818;SDS011;68166;55.090;37.460;2023-04-28T23:48:59;1.02;;;0.60;;
78818;SDS011;68166;55.090;37.460;2023-04-28T23:54:03;0.30;;;0.10;;
78818;SDS011;68166;55.090;37.460;2023-04-28T23:59:05;1.13;;;0.82;;
